Cielo Di Agadir — CNA4589 — position and weather

sailwx.info

Track history (hours):
 
Tides and Currents Weather Stations Pressure Air Temp Water Temp Dewpoint Dewpoint Depression Visibility Wind Speed Wind Dir Waves Ship Positions

Cielo Di Agadir

Last reported at 2017-Nov-12 05:30 UTC. Time now 2017-Nov-20 02:13 UTC.
Position N 36°01' E 013°54'.

Length 184 m; draft 8.9 m.

Type: Ship (hazmat cat A). MMSI: 242123100.

Date/timePositionNaut miles runAvg speedWind from/ knotsBaromVisibWave heightAir tempDewpointWater temp
2017-Nov-12 05:30N 36°01' E 013°54'814.8
2017-Nov-12 05:00N 35°56' E 014°02'714.6
2017-Nov-12 04:30N 35°52' E 014°09'714.4
2017-Nov-12 04:00N 35°48' E 014°16'714.4
2017-Nov-12 03:30N 35°44' E 014°24'911.9
2017-Nov-12 02:44N 35°47' E 014°34'2 9.0
2017-Nov-12 02:28N 35°49' E 014°33'0 0.0
2017-Nov-11 01:47N 35°49' E 014°32'0 0.0
2017-Nov-11 01:23N 35°49' E 014°32'1 1.2
2017-Nov-11 00:57N 35°49' E 014°33'7 7.8
2017-Nov-11 00:02N 35°50' E 014°42'3 7.0
2017-Nov-10 23:36N 35°51' E 014°45'0 0.3
2017-Nov-10 23:06N 35°51' E 014°45'0 0.1
2017-Nov-10 22:45N 35°51' E 014°45'0 0.0
2017-Nov-10 22:18N 35°51' E 014°45'0 0.0
2017-Nov-10 21:48N 35°51' E 014°45'0 0.0
2017-Nov-10 21:24N 35°51' E 014°45'0 0.1
2017-Nov-10 20:54N 35°51' E 014°45'0 0.0
2017-Nov-10 20:30N 35°51' E 014°45'0 0.0
2017-Nov-10 19:57N 35°51' E 014°45'0 0.1
2017-Nov-10 19:24N 35°51' E 014°45'0 0.2
2017-Nov-10 19:00N 35°51' E 014°45'0 0.0
2017-Nov-10 18:30N 35°51' E 014°45'0 0.1
2017-Nov-10 18:00N 35°51' E 014°45'0 0.0
2017-Nov-10 17:30N 35°51' E 014°45'0 0.1
2017-Nov-10 17:00N 35°51' E 014°45'0 0.1
2017-Nov-10 15:54N 35°51' E 014°45'0 0.1
2017-Nov-10 15:30N 35°51' E 014°45'0 0.1
2017-Nov-10 15:00N 35°52' E 014°45'0 0.1
2017-Nov-10 14:30N 35°51' E 014°45'0 0.1
2017-Nov-10 14:00N 35°52' E 014°45'0 0.0
2017-Nov-10 11:42N 35°51' E 014°45'0 0.4
2017-Nov-10 11:18N 35°52' E 014°45'0 0.0
2017-Nov-10 10:06N 35°51' E 014°45'0 0.0
2017-Nov-10 09:54N 35°51' E 014°45'0 0.0
2017-Nov-10 09:30N 35°52' E 014°45'0 0.0
2017-Nov-10 07:54N 35°51' E 014°45'0 0.0
2017-Nov-10 05:57N 35°51' E 014°45'0 0.0
2017-Nov-10 04:21N 35°51' E 014°45'0 0.1
2017-Nov-10 03:57N 35°51' E 014°45'0 0.0
2017-Nov-10 03:27N 35°51' E 014°45'0 0.0
2017-Nov-09 17:48N 35°51' E 014°45'1 3.3
2017-Nov-09 17:27N 35°50' E 014°46'  
Track history (hours):
 
Tides and Currents Weather Stations Pressure Air Temp Water Temp Dewpoint Dewpoint Depression Visibility Wind Speed Wind Dir Waves Ship Positions

Cielo Di Agadir

Last reported at 2017-Nov-12 05:30 UTC. Time now 2017-Nov-20 02:13 UTC.
Position N 36°01' E 013°54'.

Length 184 m; draft 8.9 m.

Type: Ship (hazmat cat A). MMSI: 242123100.

Date/timePositionNaut miles runAvg speedWind from/ knotsBaromVisibWave heightAir tempDewpointWater temp
2017-Nov-12 05:30N 36°01' E 013°54'814.8
2017-Nov-12 05:00N 35°56' E 014°02'714.6
2017-Nov-12 04:30N 35°52' E 014°09'714.4
2017-Nov-12 04:00N 35°48' E 014°16'714.4
2017-Nov-12 03:30N 35°44' E 014°24'911.9
2017-Nov-12 02:44N 35°47' E 014°34'2 9.0
2017-Nov-12 02:28N 35°49' E 014°33'0 0.0
2017-Nov-11 01:47N 35°49' E 014°32'0 0.0
2017-Nov-11 01:23N 35°49' E 014°32'1 1.2
2017-Nov-11 00:57N 35°49' E 014°33'7 7.8
2017-Nov-11 00:02N 35°50' E 014°42'3 7.0
2017-Nov-10 23:36N 35°51' E 014°45'0 0.3
2017-Nov-10 23:06N 35°51' E 014°45'0 0.1
2017-Nov-10 22:45N 35°51' E 014°45'0 0.0
2017-Nov-10 22:18N 35°51' E 014°45'0 0.0
2017-Nov-10 21:48N 35°51' E 014°45'0 0.0
2017-Nov-10 21:24N 35°51' E 014°45'0 0.1
2017-Nov-10 20:54N 35°51' E 014°45'0 0.0
2017-Nov-10 20:30N 35°51' E 014°45'0 0.0
2017-Nov-10 19:57N 35°51' E 014°45'0 0.1
2017-Nov-10 19:24N 35°51' E 014°45'0 0.2
2017-Nov-10 19:00N 35°51' E 014°45'0 0.0
2017-Nov-10 18:30N 35°51' E 014°45'0 0.1
2017-Nov-10 18:00N 35°51' E 014°45'0 0.0
2017-Nov-10 17:30N 35°51' E 014°45'0 0.1
2017-Nov-10 17:00N 35°51' E 014°45'0 0.1
2017-Nov-10 15:54N 35°51' E 014°45'0 0.1
2017-Nov-10 15:30N 35°51' E 014°45'0 0.1
2017-Nov-10 15:00N 35°52' E 014°45'0 0.1
2017-Nov-10 14:30N 35°51' E 014°45'0 0.1
2017-Nov-10 14:00N 35°52' E 014°45'0 0.0
2017-Nov-10 11:42N 35°51' E 014°45'0 0.4
2017-Nov-10 11:18N 35°52' E 014°45'0 0.0
2017-Nov-10 10:06N 35°51' E 014°45'0 0.0
2017-Nov-10 09:54N 35°51' E 014°45'0 0.0
2017-Nov-10 09:30N 35°52' E 014°45'0 0.0
2017-Nov-10 07:54N 35°51' E 014°45'0 0.0
2017-Nov-10 05:57N 35°51' E 014°45'0 0.0
2017-Nov-10 04:21N 35°51' E 014°45'0 0.1
2017-Nov-10 03:57N 35°51' E 014°45'0 0.0
2017-Nov-10 03:27N 35°51' E 014°45'0 0.0
2017-Nov-09 17:48N 35°51' E 014°45'1 3.3
2017-Nov-09 17:27N 35°50' E 014°46'  

Dump ship's entire track history